Euskara    
Meteorología y climatología de Navarra
Datos de la estación - Meteo Navarra

Estación de Arangoiti GN

Altitud 1353 m.


Datos desde el 18/10/2020 hasta el 19/10/2020 en horario solar
Los datos son PROVISIONALES

Anterior Página 1 de 1 Siguiente Descargar: Formato para Excel 2000 o superior   Formato csv   Formato para OpenOffice Calc
Fecha Temperatura Humedad relativa Radiación global Insolación Precipitación Vel. viento 10 m Vel. viento 10 m Dir. viento 10 m
°C % W/m² s l/m² m/s km/h °
18/10/2020 0:00 5.7 68 0.0 0 0.0 10.1 36.2 357
18/10/2020 0:10 5.9 65 0.0 0 0.0 9.4 33.7 0
18/10/2020 0:20 5.8 68 0.0 0 0.0 8.8 31.7 1
18/10/2020 0:30 5.6 70 0.0 0 0.0 8.7 31.3 1
18/10/2020 0:40 5.9 68 0.0 0 0.0 8.9 31.9 4
18/10/2020 0:50 5.5 66 0.0 0 0.0 8.7 31.4 3
18/10/2020 1:00 5.4 67 0.0 0 0.0 8.4 30.2 5
18/10/2020 1:10 5.7 63 0.0 0 0.0 8.3 30.0 4
18/10/2020 1:20 5.7 59 0.0 0 0.0 8.0 28.6 3
18/10/2020 1:30 5.8 59 0.0 0 0.0 7.8 28.2 2
18/10/2020 1:40 5.7 59 0.0 0 0.0 8.2 29.5 2
18/10/2020 1:50 5.7 59 0.0 0 0.0 8.3 29.7 3
18/10/2020 2:00 6.1 53 0.0 0 0.0 9.2 33.1 3
18/10/2020 2:10 5.7 54 0.0 0 0.0 8.5 30.7 2
18/10/2020 2:20 5.9 54 0.0 0 0.0 8.4 30.3 2
18/10/2020 2:30 5.7 54 0.0 0 0.0 7.9 28.5 2
18/10/2020 2:40 5.7 53 0.0 0 0.0 8.3 29.8 2
18/10/2020 2:50 6.1 54 0.0 0 0.0 8.6 30.8 1
18/10/2020 3:00 5.8 54 0.0 0 0.0 8.5 30.4 360
18/10/2020 3:10 5.7 52 0.0 0 0.0 8.7 31.2 359
18/10/2020 3:20 6.1 49 0.0 0 0.0 9.2 33.2 0
18/10/2020 3:30 6.1 48 0.0 0 0.0 9.3 33.4 1
18/10/2020 3:40 6.0 47 0.0 0 0.0 9.1 32.8 2
18/10/2020 3:50 6.3 44 0.0 0 0.0 9.0 32.2 5
18/10/2020 4:00 6.1 44 0.0 0 0.0 8.5 30.5 8
18/10/2020 4:10 6.3 44 0.0 0 0.0 8.6 31.0 9
18/10/2020 4:20 6.3 43 0.0 0 0.0 8.4 30.3 10
18/10/2020 4:30 7.0 41 0.0 0 0.0 7.8 28.0 12
18/10/2020 4:40 7.1 42 0.0 0 0.0 7.5 26.9 15
18/10/2020 4:50 7.1 42 0.0 0 0.0 6.6 23.7 15
18/10/2020 5:00 7.4 41 0.0 0 0.0 6.5 23.5 14
18/10/2020 5:10 7.6 41 0.0 0 0.0 7.5 26.9 13
18/10/2020 5:20 7.1 42 0.0 0 0.0 6.7 24.3 12
18/10/2020 5:30 7.2 41 0.0 0 0.0 6.9 24.8 11
18/10/2020 5:40 7.5 42 0.0 0 0.0 6.6 23.7 9
18/10/2020 5:50 7.5 42 0.0 0 0.0 6.5 23.2 8
18/10/2020 6:00 7.8 41 0.0 0 0.0 6.8 24.3 5
18/10/2020 6:10 7.6 41 0.3 0 0.0 7.0 25.0 5
18/10/2020 6:20 7.6 41 15.6 0 0.0 7.3 26.2 2
18/10/2020 6:30 7.6 40 22.7 0 0.0 7.3 26.4 3
18/10/2020 6:40 7.7 40 37.8 564 0.0 7.0 25.1 0
18/10/2020 6:50 6.5 43 49.4 600 0.0 6.9 24.8 0
18/10/2020 7:00 6.6 43 68.7 600 0.0 6.8 24.6 0
18/10/2020 7:10 6.6 43 112.6 600 0.0 7.1 25.6 357
18/10/2020 7:20 7.2 42 150.9 600 0.0 7.1 25.5 357
18/10/2020 7:30 7.5 42 187.3 600 0.0 7.2 26.0 1
18/10/2020 7:40 7.7 40 171.5 600 0.0 7.0 25.1 2
18/10/2020 7:50 8.2 39 160.5 600 0.0 7.0 25.3 4
18/10/2020 8:00 8.3 37 153.5 458 0.0 6.8 24.5 2
18/10/2020 8:10 8.3 37 145.3 174 0.0 6.6 23.9 2
18/10/2020 8:20 8.6 39 157.2 208 0.0 6.2 22.4 1
18/10/2020 8:30 8.8 38 243.1 512 0.0 6.6 23.8 1
18/10/2020 8:40 9.1 38 348.1 600 0.0 5.8 20.8 4
18/10/2020 8:50 9.5 38 180.9 170 0.0 5.9 21.2 7
18/10/2020 9:00 10.0 38 389.7 600 0.0 4.8 17.2 11
18/10/2020 9:10 9.3 39 258.6 266 0.0 4.5 16.3 7
18/10/2020 9:20 9.2 38 225.5 116 0.0 4.5 16.1 6
18/10/2020 9:30 9.4 39 240.8 154 0.0 4.9 17.7 5
18/10/2020 9:40 10.0 37 366.7 462 0.0 4.6 16.6 5
18/10/2020 9:50 10.4 38 401.4 600 0.0 3.8 13.5 4
18/10/2020 10:00 11.5 36 609.6 600 0.0 3.2 11.6 356
18/10/2020 10:10 11.4 33 580.9 600 0.0 3.1 11.1 354
18/10/2020 10:20 11.8 34 598.8 600 0.0 3.0 10.9 348
18/10/2020 10:30 11.5 32 587.6 600 0.0 2.9 10.5 347
18/10/2020 10:40 11.7 33 581.3 600 0.0 2.6 9.2 347
18/10/2020 10:50 12.2 31 586.1 600 0.0 2.7 9.8 349
18/10/2020 11:00 12.2 32 640.7 600 0.0 2.5 9.0 345
18/10/2020 11:10 11.9 31 648.7 600 0.0 2.3 8.4 346
18/10/2020 11:20 12.1 29 660.7 600 0.0 2.4 8.7 345
18/10/2020 11:30 12.0 30 656.9 600 0.0 1.7 6.3 329
18/10/2020 11:40 11.6 32 653.1 600 0.0 1.6 5.8 335
18/10/2020 11:50 12.7 31 651.8 600 0.0 1.6 5.9 345
18/10/2020 12:00 12.1 30 652.2 600 0.0 1.0 3.6 339
18/10/2020 12:10 12.6 28 650.1 600 0.0 1.1 4.1 331
18/10/2020 12:20 13.1 29 647.7 600 0.0 1.5 5.4 337
18/10/2020 12:30 13.7 21 641.6 600 0.0 2.0 7.1 349
18/10/2020 12:40 13.5 19 633.7 600 0.0 1.7 6.0 341
18/10/2020 12:50 13.7 19 593.5 600 0.0 1.7 6.3 330
18/10/2020 13:00 13.0 23 556.6 600 0.0 1.7 6.3 328
18/10/2020 13:10 14.1 22 534.6 600 0.0 1.4 5.0 350
18/10/2020 13:20 13.8 22 566.9 600 0.0 1.9 6.9 345
18/10/2020 13:30 13.5 25 594.1 600 0.0 1.5 5.4 338
18/10/2020 13:40 13.0 23 549.1 600 0.0 2.1 7.4 329
18/10/2020 13:50 13.1 27 522.8 600 0.0 1.7 6.2 317
18/10/2020 14:00 12.8 28 507.1 600 0.0 2.1 7.7 311
18/10/2020 14:10 13.0 26 397.0 600 0.0 1.6 5.9 303
18/10/2020 14:20 12.3 30 375.1 600 0.0 2.2 7.7 305
18/10/2020 14:30 12.6 40 409.9 600 0.0 2.4 8.7 294
18/10/2020 14:40 12.0 49 310.7 600 0.0 2.9 10.5 306
18/10/2020 14:50 12.0 52 261.2 600 0.0 3.0 10.8 323
18/10/2020 15:00 11.6 53 201.9 262 0.0 3.2 11.5 325
18/10/2020 15:10 11.6 56 170.7 142 0.0 3.2 11.5 320
18/10/2020 15:20 11.4 57 135.7 74 0.0 3.3 11.8 313
18/10/2020 15:30 11.5 57 142.2 40 0.0 3.8 13.8 326
18/10/2020 15:40 11.2 59 112.9 0 0.0 3.9 13.9 329
18/10/2020 15:50 11.2 58 111.7 0 0.0 4.0 14.4 337
18/10/2020 16:00 11.2 59 118.7 270 0.0 3.6 13.0 334
18/10/2020 16:10 11.3 58 105.2 242 0.0 3.3 11.8 324
18/10/2020 16:20 11.2 54 84.1 20 0.0 2.8 10.1 328
18/10/2020 16:30 11.2 52 90.1 586 0.0 2.7 9.6 323
18/10/2020 16:40 11.6 48 109.2 600 0.0 1.6 5.9 317
18/10/2020 16:50 11.6 49 53.7 600 0.0 1.5 5.3 321
18/10/2020 17:00 12.5 34 40.0 472 0.0 0.7 2.6 325
18/10/2020 17:10 11.7 47 22.1 0 0.0 1.5 5.5 333
18/10/2020 17:20 11.6 36 5.2 0 0.0 0.4 1.6 353
18/10/2020 17:30 11.9 38 0.0 0 0.0 0.2 0.7 174
18/10/2020 17:40 12.1 38 0.0 0 0.0 0.0 0.1 199
18/10/2020 17:50 11.8 38 0.0 0 0.0 0.7 2.6 215
18/10/2020 18:00 12.0 40 0.0 0 0.0 1.0 3.7 228
18/10/2020 18:10 10.8 54 0.0 0 0.0 1.3 4.7 212
18/10/2020 18:20 11.9 40 0.0 0 0.0 1.5 5.5 243
18/10/2020 18:30 11.2 52 0.0 0 0.0 1.7 6.2 237
18/10/2020 18:40 11.6 44 0.0 0 0.0 2.1 7.6 237
18/10/2020 18:50 11.4 44 0.0 0 0.0 2.4 8.6 225
18/10/2020 19:00 11.2 44 0.0 0 0.0 2.9 10.4 223
18/10/2020 19:10 11.0 49 0.0 0 0.0 3.3 11.8 226
18/10/2020 19:20 10.8 51 0.0 0 0.0 3.3 11.8 221
18/10/2020 19:30 11.1 45 0.0 0 0.0 3.6 12.9 227
18/10/2020 19:40 10.8 47 0.0 0 0.0 3.4 12.2 219
18/10/2020 19:50 10.8 46 0.0 0 0.0 3.4 12.1 216
18/10/2020 20:00 10.7 52 0.0 0 0.0 3.4 12.3 214
18/10/2020 20:10 10.7 49 0.0 0 0.0 3.3 12.0 209
18/10/2020 20:20 10.6 52 0.0 0 0.0 3.3 12.0 203
18/10/2020 20:30 10.3 54 0.0 0 0.0 3.2 11.7 183
18/10/2020 20:40 10.0 56 0.0 0 0.0 3.7 13.1 174
18/10/2020 20:50 9.8 57 0.0 0 0.0 4.4 15.7 173
18/10/2020 21:00 9.5 59 0.0 0 0.0 4.5 16.0 172
18/10/2020 21:10 9.5 63 0.0 0 0.0 4.6 16.4 166
18/10/2020 21:20 9.3 63 0.0 0 0.0 4.7 16.7 161
18/10/2020 21:30 9.2 62 0.0 0 0.0 4.8 17.2 163
18/10/2020 21:40 9.1 61 0.0 0 0.0 5.0 18.0 162
18/10/2020 21:50 9.1 60 0.0 0 0.0 5.4 19.3 153
18/10/2020 22:00 9.1 58 0.0 0 0.0 5.5 19.9 154
18/10/2020 22:10 9.3 54 0.0 0 0.0 6.0 21.5 152
18/10/2020 22:20 9.3 54 0.0 0 0.0 6.3 22.8 154
18/10/2020 22:30 9.1 58 0.0 0 0.0 6.1 21.8 158
18/10/2020 22:40 9.1 57 0.0 0 0.0 6.5 23.3 156
18/10/2020 22:50 8.9 57 0.0 0 0.0 6.4 23.2 154
18/10/2020 23:00 8.9 59 0.0 0 0.0 7.0 25.3 155
18/10/2020 23:10 9.1 59 0.0 0 0.0 7.0 25.3 154
18/10/2020 23:20 8.8 60 0.0 0 0.0 7.6 27.2 154
18/10/2020 23:30 8.9 61 0.0 0 0.0 8.1 29.0 152
18/10/2020 23:40 8.8 62 0.0 0 0.0 7.9 28.3 152
18/10/2020 23:50 8.6 61 0.0 0 0.0 7.7 27.8 150
Anterior Página 1 de 1 Siguiente
Los datos de precipitación registrados en estaciones que están en cumbres son inferiores a lo real, como consecuencia del efecto del viento y de la nieve.


NOTA: Tipo de datos según el color:
   - Valores diarios o 10 minutos correctos
   - Valores diarios calculados a partir de un número de datos 10 minutos menor que 144 y mayor que 120, o de un número de datos semihorarios menor que 48 y mayor que 40 (caso de las estaciones de INTIA Y Ministerio)
   - Valores diez minutos estimados


Contacto        Enlaces        Aviso legal